Airfield :
LOGIN :

Register | Disclaimer

   EN    FR    IT 

 










Legend :    VFR   Marginal VFR   IFR   Intensive IFR   Very Intensive IFR
Visi :
Ceiling :
>= 8 km
>= 3000ft
5 to 8 km
1000 to 3000 ft
1500m to 5 km
500 to 1000 ft
800 to 1500m
200 to 500 ft
< 800m
< 200 ft
Symbols :   Thunderstorms  Fog  Heavy snow  Heavy precipitations  Wind > 20 kt
SIGMETs :     Misc.  Thunderstorms  Icing  Turbulence  Mountain Waves  Volcanic Ashes







- Airport Elevation : 7 ft
- IATA code : VCE


LIPZ - Marco Polo Int. Venezia

CURRENT METAR :
  • 171520Z 13007KT CAVOK 25/20 Q1013 NOSIG

EXPIRED METARs :
  • 171450Z 12007KT CAVOK 25/21 Q1013 NOSIG
  • 171420Z 13006KT 9999 SCT050 25/20 Q1013 NOSIG
  • 171350Z 15006KT 120V180 9999 SCT050 25/21 Q1013 NOSIG
  • 171320Z 14007KT 9999 FEW050 25/21 Q1013 NOSIG
  • 171250Z 14008KT CAVOK 25/21 Q1014 NOSIG

TAF TAF LIPZ
Valid from the 17 at 12:00 until the 18 at 18:00 UTC


171100Z 1712/1818 VRB05KT 9999 SCT040
TEMPO 1804/1815 4000 TSRA
BECMG 1804/1806 08014KT
No reported NOTAMs for that airfield.



MET'MAP, your aeronautical weather chart ! - Copyright ORBIFLY December 2007 - Disclaimer

ORBIFLY MET'MAP TEAM :

Programming & Development : Alexandra Zaïnal
Concept & Development : Baudouin d'Aumeries
Co-Development & Prog : Marc-Olivier Méhu
Technical & hardware support : Manuel Goepfert

Contact : metmap@orbifly.com




SOURCES & CREDITS :

   NOAA